sensor_id;sensor_type;location;lat;lon;timestamp;P1;durP1;ratioP1;P2;durP2;ratioP2
46363;SDS011;32071;49.036;9.344;2023-08-12T00:00:15;13.03;;;6.73;;
46363;SDS011;32071;49.036;9.344;2023-08-12T00:02:44;7.97;;;6.60;;
46363;SDS011;32071;49.036;9.344;2023-08-12T00:05:10;10.70;;;7.20;;
46363;SDS011;32071;49.036;9.344;2023-08-12T00:07:36;6.97;;;6.30;;
46363;SDS011;32071;49.036;9.344;2023-08-12T00:10:03;7.90;;;6.53;;
46363;SDS011;32071;49.036;9.344;2023-08-12T00:12:31;9.20;;;6.80;;
46363;SDS011;32071;49.036;9.344;2023-08-12T00:14:57;8.27;;;6.13;;
46363;SDS011;32071;49.036;9.344;2023-08-12T00:17:23;7.67;;;6.97;;
46363;SDS011;32071;49.036;9.344;2023-08-12T00:19:48;7.17;;;6.43;;
46363;SDS011;32071;49.036;9.344;2023-08-12T00:22:14;6.90;;;6.30;;
46363;SDS011;32071;49.036;9.344;2023-08-12T00:24:39;9.27;;;6.40;;
46363;SDS011;32071;49.036;9.344;2023-08-12T00:27:05;8.83;;;6.57;;
46363;SDS011;32071;49.036;9.344;2023-08-12T00:29:34;7.30;;;6.60;;
46363;SDS011;32071;49.036;9.344;2023-08-12T00:32:00;9.60;;;7.27;;
46363;SDS011;32071;49.036;9.344;2023-08-12T00:34:26;7.93;;;7.07;;
46363;SDS011;32071;49.036;9.344;2023-08-12T00:36:52;7.63;;;6.60;;
46363;SDS011;32071;49.036;9.344;2023-08-12T00:39:17;8.00;;;6.73;;
46363;SDS011;32071;49.036;9.344;2023-08-12T00:41:43;9.10;;;6.90;;
46363;SDS011;32071;49.036;9.344;2023-08-12T00:44:09;7.93;;;7.13;;
46363;SDS011;32071;49.036;9.344;2023-08-12T00:46:35;10.20;;;7.03;;
46363;SDS011;32071;49.036;9.344;2023-08-12T00:49:03;15.13;;;7.70;;
46363;SDS011;32071;49.036;9.344;2023-08-12T00:51:29;7.53;;;6.80;;
46363;SDS011;32071;49.036;9.344;2023-08-12T00:53:54;8.57;;;7.67;;
46363;SDS011;32071;49.036;9.344;2023-08-12T00:56:23;8.43;;;7.30;;
46363;SDS011;32071;49.036;9.344;2023-08-12T00:58:50;6.83;;;6.23;;
46363;SDS011;32071;49.036;9.344;2023-08-12T01:01:17;9.07;;;6.90;;
46363;SDS011;32071;49.036;9.344;2023-08-12T01:03:43;9.50;;;7.77;;
46363;SDS011;32071;49.036;9.344;2023-08-12T01:06:08;8.13;;;7.30;;
46363;SDS011;32071;49.036;9.344;2023-08-12T01:08:34;8.30;;;7.50;;
46363;SDS011;32071;49.036;9.344;2023-08-12T01:11:34;10.07;;;7.63;;
46363;SDS011;32071;49.036;9.344;2023-08-12T01:14:02;9.37;;;7.63;;
46363;SDS011;32071;49.036;9.344;2023-08-12T01:16:39;8.90;;;6.57;;
46363;SDS011;32071;49.036;9.344;2023-08-12T01:19:09;10.87;;;7.67;;
46363;SDS011;32071;49.036;9.344;2023-08-12T01:21:36;7.83;;;7.10;;
46363;SDS011;32071;49.036;9.344;2023-08-12T01:24:08;8.50;;;7.70;;
46363;SDS011;32071;49.036;9.344;2023-08-12T01:26:34;9.73;;;7.43;;
46363;SDS011;32071;49.036;9.344;2023-08-12T01:28:59;9.87;;;7.60;;
46363;SDS011;32071;49.036;9.344;2023-08-12T01:31:31;9.23;;;7.57;;
46363;SDS011;32071;49.036;9.344;2023-08-12T01:34:02;8.10;;;7.30;;
46363;SDS011;32071;49.036;9.344;2023-08-12T01:36:37;7.80;;;6.70;;
46363;SDS011;32071;49.036;9.344;2023-08-12T01:39:04;7.67;;;6.90;;
46363;SDS011;32071;49.036;9.344;2023-08-12T01:41:33;13.70;;;7.73;;
46363;SDS011;32071;49.036;9.344;2023-08-12T01:44:00;13.27;;;7.00;;
46363;SDS011;32071;49.036;9.344;2023-08-12T01:46:27;8.83;;;7.50;;
46363;SDS011;32071;49.036;9.344;2023-08-12T01:48:53;13.47;;;7.80;;
46363;SDS011;32071;49.036;9.344;2023-08-12T01:51:18;7.33;;;6.67;;
46363;SDS011;32071;49.036;9.344;2023-08-12T01:53:44;9.20;;;7.73;;
46363;SDS011;32071;49.036;9.344;2023-08-12T01:56:09;7.63;;;6.90;;
46363;SDS011;32071;49.036;9.344;2023-08-12T01:58:35;7.70;;;7.07;;
46363;SDS011;32071;49.036;9.344;2023-08-12T02:01:00;7.90;;;7.17;;
46363;SDS011;32071;49.036;9.344;2023-08-12T02:03:26;8.57;;;7.50;;
46363;SDS011;32071;49.036;9.344;2023-08-12T02:05:51;7.90;;;7.20;;
46363;SDS011;32071;49.036;9.344;2023-08-12T02:08:17;8.50;;;6.80;;
46363;SDS011;32071;49.036;9.344;2023-08-12T02:10:43;7.47;;;6.67;;
46363;SDS011;32071;49.036;9.344;2023-08-12T02:13:08;9.23;;;7.57;;
46363;SDS011;32071;49.036;9.344;2023-08-12T02:15:34;7.40;;;6.47;;
46363;SDS011;32071;49.036;9.344;2023-08-12T02:17:59;8.03;;;6.90;;
46363;SDS011;32071;49.036;9.344;2023-08-12T02:20:25;8.27;;;7.43;;
46363;SDS011;32071;49.036;9.344;2023-08-12T02:22:50;7.67;;;6.90;;
46363;SDS011;32071;49.036;9.344;2023-08-12T02:25:16;10.63;;;7.90;;
46363;SDS011;32071;49.036;9.344;2023-08-12T02:27:42;7.73;;;7.03;;
46363;SDS011;32071;49.036;9.344;2023-08-12T02:30:07;7.37;;;6.57;;
46363;SDS011;32071;49.036;9.344;2023-08-12T02:32:33;9.13;;;7.60;;
46363;SDS011;32071;49.036;9.344;2023-08-12T02:34:58;8.07;;;7.37;;
46363;SDS011;32071;49.036;9.344;2023-08-12T02:37:24;8.20;;;7.30;;
46363;SDS011;32071;49.036;9.344;2023-08-12T02:39:49;8.63;;;7.73;;
46363;SDS011;32071;49.036;9.344;2023-08-12T02:42:15;8.00;;;7.07;;
46363;SDS011;32071;49.036;9.344;2023-08-12T02:44:41;12.33;;;7.13;;
46363;SDS011;32071;49.036;9.344;2023-08-12T02:47:06;11.07;;;6.57;;
46363;SDS011;32071;49.036;9.344;2023-08-12T02:49:32;7.50;;;6.80;;
46363;SDS011;32071;49.036;9.344;2023-08-12T02:51:57;10.20;;;7.87;;
46363;SDS011;32071;49.036;9.344;2023-08-12T02:54:23;8.20;;;7.40;;
46363;SDS011;32071;49.036;9.344;2023-08-12T02:56:49;9.00;;;8.10;;
46363;SDS011;32071;49.036;9.344;2023-08-12T02:59:15;7.40;;;6.80;;
46363;SDS011;32071;49.036;9.344;2023-08-12T03:01:41;8.40;;;7.13;;
46363;SDS011;32071;49.036;9.344;2023-08-12T03:04:07;10.27;;;8.07;;
46363;SDS011;32071;49.036;9.344;2023-08-12T03:06:33;9.13;;;7.93;;
46363;SDS011;32071;49.036;9.344;2023-08-12T03:08:58;8.00;;;7.20;;
46363;SDS011;32071;49.036;9.344;2023-08-12T03:11:24;13.53;;;7.20;;
46363;SDS011;32071;49.036;9.344;2023-08-12T03:13:49;8.17;;;7.37;;
46363;SDS011;32071;49.036;9.344;2023-08-12T03:16:15;7.50;;;6.80;;
46363;SDS011;32071;49.036;9.344;2023-08-12T03:18:41;8.97;;;7.10;;
46363;SDS011;32071;49.036;9.344;2023-08-12T03:21:09;11.53;;;7.77;;
46363;SDS011;32071;49.036;9.344;2023-08-12T03:23:35;9.93;;;8.20;;
46363;SDS011;32071;49.036;9.344;2023-08-12T03:26:02;10.23;;;8.20;;
46363;SDS011;32071;49.036;9.344;2023-08-12T03:28:27;8.47;;;7.60;;
46363;SDS011;32071;49.036;9.344;2023-08-12T03:30:53;7.87;;;7.17;;
46363;SDS011;32071;49.036;9.344;2023-08-12T03:33:19;7.30;;;6.60;;
46363;SDS011;32071;49.036;9.344;2023-08-12T03:35:48;7.70;;;6.90;;
46363;SDS011;32071;49.036;9.344;2023-08-12T03:38:14;11.27;;;8.57;;
46363;SDS011;32071;49.036;9.344;2023-08-12T03:40:41;8.00;;;7.23;;
46363;SDS011;32071;49.036;9.344;2023-08-12T03:43:07;7.33;;;6.63;;
46363;SDS011;32071;49.036;9.344;2023-08-12T03:45:33;7.57;;;6.73;;
46363;SDS011;32071;49.036;9.344;2023-08-12T03:48:04;12.53;;;7.00;;
46363;SDS011;32071;49.036;9.344;2023-08-12T03:50:33;9.07;;;7.40;;
46363;SDS011;32071;49.036;9.344;2023-08-12T03:52:59;8.67;;;7.77;;
46363;SDS011;32071;49.036;9.344;2023-08-12T03:55:25;10.00;;;7.33;;
46363;SDS011;32071;49.036;9.344;2023-08-12T03:57:51;8.77;;;7.80;;
46363;SDS011;32071;49.036;9.344;2023-08-12T04:00:16;9.60;;;7.27;;
46363;SDS011;32071;49.036;9.344;2023-08-12T04:02:42;9.33;;;7.80;;
46363;SDS011;32071;49.036;9.344;2023-08-12T04:05:08;9.23;;;7.60;;
46363;SDS011;32071;49.036;9.344;2023-08-12T04:07:35;11.63;;;7.80;;
46363;SDS011;32071;49.036;9.344;2023-08-12T04:10:01;8.43;;;7.63;;
46363;SDS011;32071;49.036;9.344;2023-08-12T04:12:27;10.60;;;7.83;;
46363;SDS011;32071;49.036;9.344;2023-08-12T04:14:53;7.57;;;6.87;;
46363;SDS011;32071;49.036;9.344;2023-08-12T04:17:18;9.10;;;6.87;;
46363;SDS011;32071;49.036;9.344;2023-08-12T04:19:44;9.63;;;6.63;;
46363;SDS011;32071;49.036;9.344;2023-08-12T04:22:09;8.07;;;7.27;;
46363;SDS011;32071;49.036;9.344;2023-08-12T04:24:35;14.73;;;7.87;;
46363;SDS011;32071;49.036;9.344;2023-08-12T04:27:00;11.73;;;8.17;;
46363;SDS011;32071;49.036;9.344;2023-08-12T04:29:26;7.70;;;7.00;;
46363;SDS011;32071;49.036;9.344;2023-08-12T04:31:51;9.03;;;7.60;;
46363;SDS011;32071;49.036;9.344;2023-08-12T04:34:17;9.00;;;7.63;;
46363;SDS011;32071;49.036;9.344;2023-08-12T04:36:43;11.87;;;7.50;;
46363;SDS011;32071;49.036;9.344;2023-08-12T04:39:09;7.90;;;6.87;;
46363;SDS011;32071;49.036;9.344;2023-08-12T04:41:35;8.03;;;7.23;;
46363;SDS011;32071;49.036;9.344;2023-08-12T04:44:03;8.37;;;7.60;;
46363;SDS011;32071;49.036;9.344;2023-08-12T04:46:29;9.83;;;7.97;;
46363;SDS011;32071;49.036;9.344;2023-08-12T04:48:55;11.37;;;8.70;;
46363;SDS011;32071;49.036;9.344;2023-08-12T04:51:20;8.33;;;7.00;;
46363;SDS011;32071;49.036;9.344;2023-08-12T04:53:46;8.40;;;7.70;;
46363;SDS011;32071;49.036;9.344;2023-08-12T04:56:11;8.90;;;7.83;;
46363;SDS011;32071;49.036;9.344;2023-08-12T04:58:37;7.73;;;7.03;;
46363;SDS011;32071;49.036;9.344;2023-08-12T05:01:03;8.60;;;7.73;;
46363;SDS011;32071;49.036;9.344;2023-08-12T05:03:28;7.90;;;7.20;;
46363;SDS011;32071;49.036;9.344;2023-08-12T05:05:54;9.23;;;8.20;;
46363;SDS011;32071;49.036;9.344;2023-08-12T05:08:20;8.27;;;7.47;;
46363;SDS011;32071;49.036;9.344;2023-08-12T05:10:48;9.13;;;8.20;;
46363;SDS011;32071;49.036;9.344;2023-08-12T05:13:14;9.23;;;8.23;;
46363;SDS011;32071;49.036;9.344;2023-08-12T05:15:40;10.70;;;8.03;;
46363;SDS011;32071;49.036;9.344;2023-08-12T05:18:06;9.30;;;8.00;;
46363;SDS011;32071;49.036;9.344;2023-08-12T05:20:31;8.10;;;7.40;;
46363;SDS011;32071;49.036;9.344;2023-08-12T05:22:57;11.50;;;7.47;;
46363;SDS011;32071;49.036;9.344;2023-08-12T05:25:23;9.60;;;8.63;;
46363;SDS011;32071;49.036;9.344;2023-08-12T05:27:49;14.47;;;8.47;;
46363;SDS011;32071;49.036;9.344;2023-08-12T05:30:14;8.43;;;7.63;;
46363;SDS011;32071;49.036;9.344;2023-08-12T05:32:40;8.97;;;8.07;;
46363;SDS011;32071;49.036;9.344;2023-08-12T05:35:06;8.67;;;7.77;;
46363;SDS011;32071;49.036;9.344;2023-08-12T05:37:32;10.07;;;8.00;;
46363;SDS011;32071;49.036;9.344;2023-08-12T05:39:57;9.73;;;8.17;;
46363;SDS011;32071;49.036;9.344;2023-08-12T05:42:23;9.53;;;7.50;;
46363;SDS011;32071;49.036;9.344;2023-08-12T05:44:48;9.77;;;7.80;;
46363;SDS011;32071;49.036;9.344;2023-08-12T05:47:14;9.63;;;7.77;;
46363;SDS011;32071;49.036;9.344;2023-08-12T05:49:39;11.30;;;7.83;;
46363;SDS011;32071;49.036;9.344;2023-08-12T05:52:06;7.67;;;6.97;;
46363;SDS011;32071;49.036;9.344;2023-08-12T05:54:32;11.53;;;7.97;;
46363;SDS011;32071;49.036;9.344;2023-08-12T05:56:57;9.10;;;7.90;;
46363;SDS011;32071;49.036;9.344;2023-08-12T05:59:23;8.53;;;7.73;;
46363;SDS011;32071;49.036;9.344;2023-08-12T06:01:49;10.87;;;8.27;;
46363;SDS011;32071;49.036;9.344;2023-08-12T06:04:14;8.63;;;7.73;;
46363;SDS011;32071;49.036;9.344;2023-08-12T06:06:40;9.00;;;8.20;;
46363;SDS011;32071;49.036;9.344;2023-08-12T06:09:05;8.77;;;7.43;;
46363;SDS011;32071;49.036;9.344;2023-08-12T06:11:31;9.00;;;8.10;;
46363;SDS011;32071;49.036;9.344;2023-08-12T06:13:56;8.67;;;7.77;;
46363;SDS011;32071;49.036;9.344;2023-08-12T06:16:22;9.00;;;8.10;;
46363;SDS011;32071;49.036;9.344;2023-08-12T06:18:48;9.00;;;7.90;;
46363;SDS011;32071;49.036;9.344;2023-08-12T06:21:13;9.50;;;8.50;;
46363;SDS011;32071;49.036;9.344;2023-08-12T06:23:39;9.13;;;8.27;;
46363;SDS011;32071;49.036;9.344;2023-08-12T06:26:04;8.40;;;7.60;;
46363;SDS011;32071;49.036;9.344;2023-08-12T06:28:30;11.03;;;8.50;;
46363;SDS011;32071;49.036;9.344;2023-08-12T06:30:55;11.20;;;8.27;;
46363;SDS011;32071;49.036;9.344;2023-08-12T06:33:21;10.87;;;7.73;;
46363;SDS011;32071;49.036;9.344;2023-08-12T06:35:46;9.10;;;8.30;;
46363;SDS011;32071;49.036;9.344;2023-08-12T06:38:12;7.80;;;7.20;;
46363;SDS011;32071;49.036;9.344;2023-08-12T06:40:38;8.13;;;7.33;;
46363;SDS011;32071;49.036;9.344;2023-08-12T06:43:04;8.67;;;7.80;;
46363;SDS011;32071;49.036;9.344;2023-08-12T06:45:30;9.73;;;7.90;;
46363;SDS011;32071;49.036;9.344;2023-08-12T06:47:55;8.63;;;7.93;;
46363;SDS011;32071;49.036;9.344;2023-08-12T06:50:21;9.37;;;8.40;;
46363;SDS011;32071;49.036;9.344;2023-08-12T06:52:46;12.60;;;8.73;;
46363;SDS011;32071;49.036;9.344;2023-08-12T06:55:12;10.57;;;8.80;;
46363;SDS011;32071;49.036;9.344;2023-08-12T06:57:37;8.63;;;7.73;;
46363;SDS011;32071;49.036;9.344;2023-08-12T07:00:03;8.53;;;7.63;;
46363;SDS011;32071;49.036;9.344;2023-08-12T07:02:30;8.87;;;7.93;;
46363;SDS011;32071;49.036;9.344;2023-08-12T07:04:55;8.60;;;7.90;;
46363;SDS011;32071;49.036;9.344;2023-08-12T07:07:21;10.30;;;7.97;;
46363;SDS011;32071;49.036;9.344;2023-08-12T07:09:47;10.57;;;8.17;;
46363;SDS011;32071;49.036;9.344;2023-08-12T07:12:12;9.43;;;8.57;;
46363;SDS011;32071;49.036;9.344;2023-08-12T07:14:38;10.03;;;9.07;;
46363;SDS011;32071;49.036;9.344;2023-08-12T07:17:03;9.20;;;8.40;;
46363;SDS011;32071;49.036;9.344;2023-08-12T07:19:29;8.60;;;7.80;;
46363;SDS011;32071;49.036;9.344;2023-08-12T07:21:55;9.17;;;8.27;;
46363;SDS011;32071;49.036;9.344;2023-08-12T07:24:20;9.40;;;8.60;;
46363;SDS011;32071;49.036;9.344;2023-08-12T07:26:46;11.80;;;10.13;;
46363;SDS011;32071;49.036;9.344;2023-08-12T07:29:11;12.00;;;10.90;;
46363;SDS011;32071;49.036;9.344;2023-08-12T07:31:37;14.50;;;10.13;;
46363;SDS011;32071;49.036;9.344;2023-08-12T07:34:02;11.30;;;10.23;;
46363;SDS011;32071;49.036;9.344;2023-08-12T07:36:28;16.90;;;11.40;;
46363;SDS011;32071;49.036;9.344;2023-08-12T07:38:54;12.73;;;10.83;;
46363;SDS011;32071;49.036;9.344;2023-08-12T07:41:19;12.10;;;10.90;;
46363;SDS011;32071;49.036;9.344;2023-08-12T07:43:45;12.70;;;11.40;;
46363;SDS011;32071;49.036;9.344;2023-08-12T07:46:10;13.03;;;11.73;;
46363;SDS011;32071;49.036;9.344;2023-08-12T07:48:36;11.90;;;10.80;;
46363;SDS011;32071;49.036;9.344;2023-08-12T07:51:03;13.80;;;10.87;;
46363;SDS011;32071;49.036;9.344;2023-08-12T07:53:28;12.27;;;11.00;;
46363;SDS011;32071;49.036;9.344;2023-08-12T07:55:54;12.50;;;11.37;;
46363;SDS011;32071;49.036;9.344;2023-08-12T07:58:19;12.07;;;10.77;;
46363;SDS011;32071;49.036;9.344;2023-08-12T08:00:45;11.70;;;10.70;;
46363;SDS011;32071;49.036;9.344;2023-08-12T08:03:10;12.13;;;10.87;;
46363;SDS011;32071;49.036;9.344;2023-08-12T08:05:39;11.10;;;10.10;;
46363;SDS011;32071;49.036;9.344;2023-08-12T08:08:06;11.90;;;10.67;;
46363;SDS011;32071;49.036;9.344;2023-08-12T08:10:31;10.80;;;9.83;;
46363;SDS011;32071;49.036;9.344;2023-08-12T08:12:57;11.07;;;10.07;;
46363;SDS011;32071;49.036;9.344;2023-08-12T08:15:22;11.83;;;9.90;;
46363;SDS011;32071;49.036;9.344;2023-08-12T08:17:48;11.23;;;10.30;;
46363;SDS011;32071;49.036;9.344;2023-08-12T08:20:13;10.07;;;9.27;;
46363;SDS011;32071;49.036;9.344;2023-08-12T08:22:39;11.13;;;10.03;;
46363;SDS011;32071;49.036;9.344;2023-08-12T08:25:05;11.50;;;10.40;;
46363;SDS011;32071;49.036;9.344;2023-08-12T08:27:30;10.80;;;9.47;;
46363;SDS011;32071;49.036;9.344;2023-08-12T08:29:56;11.10;;;10.00;;
46363;SDS011;32071;49.036;9.344;2023-08-12T08:32:22;9.70;;;8.80;;
46363;SDS011;32071;49.036;9.344;2023-08-12T08:34:48;9.30;;;8.60;;
46363;SDS011;32071;49.036;9.344;2023-08-12T08:37:14;11.00;;;9.97;;
46363;SDS011;32071;49.036;9.344;2023-08-12T08:39:39;10.10;;;9.20;;
46363;SDS011;32071;49.036;9.344;2023-08-12T08:42:05;10.80;;;9.90;;
46363;SDS011;32071;49.036;9.344;2023-08-12T08:44:31;10.40;;;9.50;;
46363;SDS011;32071;49.036;9.344;2023-08-12T08:46:58;11.77;;;10.67;;
46363;SDS011;32071;49.036;9.344;2023-08-12T08:49:25;10.10;;;9.20;;
46363;SDS011;32071;49.036;9.344;2023-08-12T08:51:51;10.50;;;9.60;;
46363;SDS011;32071;49.036;9.344;2023-08-12T08:54:18;11.07;;;10.00;;
46363;SDS011;32071;49.036;9.344;2023-08-12T08:56:45;10.67;;;9.70;;
46363;SDS011;32071;49.036;9.344;2023-08-12T08:59:13;10.00;;;9.20;;
46363;SDS011;32071;49.036;9.344;2023-08-12T09:01:38;10.13;;;9.23;;
46363;SDS011;32071;49.036;9.344;2023-08-12T09:04:05;10.23;;;9.23;;
46363;SDS011;32071;49.036;9.344;2023-08-12T09:06:32;10.00;;;9.20;;
46363;SDS011;32071;49.036;9.344;2023-08-12T09:09:00;10.10;;;9.30;;
46363;SDS011;32071;49.036;9.344;2023-08-12T09:11:26;10.03;;;9.23;;
46363;SDS011;32071;49.036;9.344;2023-08-12T09:13:52;10.00;;;9.13;;
46363;SDS011;32071;49.036;9.344;2023-08-12T09:16:18;10.17;;;9.23;;
46363;SDS011;32071;49.036;9.344;2023-08-12T09:18:44;10.27;;;9.47;;
46363;SDS011;32071;49.036;9.344;2023-08-12T09:21:10;9.77;;;8.93;;
46363;SDS011;32071;49.036;9.344;2023-08-12T09:23:39;10.60;;;9.70;;
46363;SDS011;32071;49.036;9.344;2023-08-12T09:26:18;10.27;;;9.30;;
46363;SDS011;32071;49.036;9.344;2023-08-12T09:28:45;10.07;;;9.17;;
46363;SDS011;32071;49.036;9.344;2023-08-12T09:31:21;10.87;;;9.87;;
46363;SDS011;32071;49.036;9.344;2023-08-12T09:33:47;10.53;;;9.63;;
46363;SDS011;32071;49.036;9.344;2023-08-12T09:36:13;11.17;;;10.07;;
46363;SDS011;32071;49.036;9.344;2023-08-12T09:38:38;12.90;;;10.00;;
46363;SDS011;32071;49.036;9.344;2023-08-12T09:41:05;10.80;;;9.80;;
46363;SDS011;32071;49.036;9.344;2023-08-12T09:43:31;10.63;;;9.63;;
46363;SDS011;32071;49.036;9.344;2023-08-12T09:45:57;10.00;;;9.10;;
46363;SDS011;32071;49.036;9.344;2023-08-12T09:48:23;10.80;;;9.80;;
46363;SDS011;32071;49.036;9.344;2023-08-12T09:50:50;10.50;;;9.47;;
46363;SDS011;32071;49.036;9.344;2023-08-12T09:53:17;9.67;;;8.83;;
46363;SDS011;32071;49.036;9.344;2023-08-12T09:55:43;10.70;;;9.80;;
46363;SDS011;32071;49.036;9.344;2023-08-12T09:58:13;9.80;;;8.90;;
46363;SDS011;32071;49.036;9.344;2023-08-12T10:00:42;10.47;;;9.47;;
46363;SDS011;32071;49.036;9.344;2023-08-12T10:03:08;9.67;;;8.87;;
46363;SDS011;32071;49.036;9.344;2023-08-12T10:05:39;9.80;;;8.90;;
46363;SDS011;32071;49.036;9.344;2023-08-12T10:08:05;9.90;;;8.80;;
46363;SDS011;32071;49.036;9.344;2023-08-12T10:10:32;10.00;;;8.90;;
46363;SDS011;32071;49.036;9.344;2023-08-12T10:13:00;10.43;;;9.43;;
46363;SDS011;32071;49.036;9.344;2023-08-12T10:15:26;9.90;;;9.10;;
46363;SDS011;32071;49.036;9.344;2023-08-12T10:17:52;9.20;;;8.40;;
46363;SDS011;32071;49.036;9.344;2023-08-12T10:20:21;10.50;;;9.60;;
46363;SDS011;32071;49.036;9.344;2023-08-12T10:22:49;9.47;;;8.60;;
46363;SDS011;32071;49.036;9.344;2023-08-12T10:25:15;10.20;;;8.70;;
46363;SDS011;32071;49.036;9.344;2023-08-12T10:27:43;9.90;;;8.90;;
46363;SDS011;32071;49.036;9.344;2023-08-12T10:30:09;9.90;;;8.90;;
46363;SDS011;32071;49.036;9.344;2023-08-12T10:32:35;10.00;;;8.80;;
46363;SDS011;32071;49.036;9.344;2023-08-12T10:35:01;9.20;;;8.50;;
46363;SDS011;32071;49.036;9.344;2023-08-12T10:37:30;8.90;;;8.13;;
46363;SDS011;32071;49.036;9.344;2023-08-12T10:39:57;8.87;;;8.03;;
46363;SDS011;32071;49.036;9.344;2023-08-12T10:45:14;8.60;;;7.90;;
46363;SDS011;32071;49.036;9.344;2023-08-12T10:47:47;9.80;;;9.00;;
46363;SDS011;32071;49.036;9.344;2023-08-12T10:50:20;11.30;;;9.37;;
46363;SDS011;32071;49.036;9.344;2023-08-12T10:52:47;10.20;;;9.40;;
46363;SDS011;32071;49.036;9.344;2023-08-12T10:55:16;10.03;;;9.10;;
46363;SDS011;32071;49.036;9.344;2023-08-12T10:57:52;11.53;;;10.43;;
46363;SDS011;32071;49.036;9.344;2023-08-12T11:00:20;11.30;;;10.40;;
46363;SDS011;32071;49.036;9.344;2023-08-12T11:02:50;11.33;;;10.20;;
46363;SDS011;32071;49.036;9.344;2023-08-12T11:05:17;9.83;;;8.93;;
46363;SDS011;32071;49.036;9.344;2023-08-12T11:07:44;10.00;;;9.20;;
46363;SDS011;32071;49.036;9.344;2023-08-12T11:10:27;10.20;;;9.30;;
46363;SDS011;32071;49.036;9.344;2023-08-12T11:12:56;10.50;;;9.50;;
46363;SDS011;32071;49.036;9.344;2023-08-12T11:15:41;9.83;;;9.13;;
46363;SDS011;32071;49.036;9.344;2023-08-12T11:18:14;11.33;;;8.77;;
46363;SDS011;32071;49.036;9.344;2023-08-12T11:20:50;10.27;;;9.37;;
46363;SDS011;32071;49.036;9.344;2023-08-12T11:23:17;9.07;;;8.30;;
46363;SDS011;32071;49.036;9.344;2023-08-12T11:25:43;9.87;;;8.90;;
46363;SDS011;32071;49.036;9.344;2023-08-12T11:28:09;9.73;;;8.93;;
46363;SDS011;32071;49.036;9.344;2023-08-12T11:30:35;9.80;;;8.97;;
46363;SDS011;32071;49.036;9.344;2023-08-12T11:33:01;9.70;;;8.90;;
46363;SDS011;32071;49.036;9.344;2023-08-12T11:35:27;8.80;;;8.10;;
46363;SDS011;32071;49.036;9.344;2023-08-12T11:37:56;8.80;;;8.20;;
46363;SDS011;32071;49.036;9.344;2023-08-12T11:40:23;8.80;;;8.10;;
46363;SDS011;32071;49.036;9.344;2023-08-12T11:42:50;8.17;;;7.57;;
46363;SDS011;32071;49.036;9.344;2023-08-12T11:48:18;10.00;;;9.10;;
46363;SDS011;32071;49.036;9.344;2023-08-12T11:50:45;8.70;;;8.00;;
46363;SDS011;32071;49.036;9.344;2023-08-12T11:53:10;9.13;;;8.43;;
46363;SDS011;32071;49.036;9.344;2023-08-12T11:55:36;9.43;;;8.63;;
46363;SDS011;32071;49.036;9.344;2023-08-12T11:58:02;9.43;;;8.73;;
46363;SDS011;32071;49.036;9.344;2023-08-12T12:00:27;9.53;;;8.57;;
46363;SDS011;32071;49.036;9.344;2023-08-12T12:02:54;9.63;;;8.83;;
46363;SDS011;32071;49.036;9.344;2023-08-12T12:05:26;10.63;;;9.73;;
46363;SDS011;32071;49.036;9.344;2023-08-12T12:07:53;10.83;;;9.77;;
46363;SDS011;32071;49.036;9.344;2023-08-12T12:10:19;11.43;;;10.43;;
46363;SDS011;32071;49.036;9.344;2023-08-12T12:13:03;12.20;;;11.20;;
46363;SDS011;32071;49.036;9.344;2023-08-12T12:15:30;14.10;;;12.63;;
46363;SDS011;32071;49.036;9.344;2023-08-12T12:17:57;17.70;;;14.13;;
46363;SDS011;32071;49.036;9.344;2023-08-12T12:20:23;18.53;;;14.50;;
46363;SDS011;32071;49.036;9.344;2023-08-12T12:22:50;15.93;;;14.37;;
46363;SDS011;32071;49.036;9.344;2023-08-12T12:25:16;14.87;;;13.27;;
46363;SDS011;32071;49.036;9.344;2023-08-12T12:27:45;16.07;;;14.50;;
46363;SDS011;32071;49.036;9.344;2023-08-12T12:30:11;14.10;;;12.77;;
46363;SDS011;32071;49.036;9.344;2023-08-12T12:32:39;16.77;;;14.97;;
46363;SDS011;32071;49.036;9.344;2023-08-12T12:35:05;15.23;;;13.83;;
46363;SDS011;32071;49.036;9.344;2023-08-12T12:37:34;16.10;;;14.50;;
46363;SDS011;32071;49.036;9.344;2023-08-12T12:40:01;15.43;;;13.90;;
46363;SDS011;32071;49.036;9.344;2023-08-12T12:42:28;15.13;;;13.50;;
46363;SDS011;32071;49.036;9.344;2023-08-12T12:44:53;15.93;;;13.70;;
46363;SDS011;32071;49.036;9.344;2023-08-12T12:47:19;14.30;;;12.97;;
46363;SDS011;32071;49.036;9.344;2023-08-12T12:49:45;14.90;;;13.20;;
46363;SDS011;32071;49.036;9.344;2023-08-12T12:52:10;14.33;;;12.70;;
46363;SDS011;32071;49.036;9.344;2023-08-12T12:54:36;14.83;;;13.43;;
46363;SDS011;32071;49.036;9.344;2023-08-12T12:57:02;18.40;;;13.30;;
46363;SDS011;32071;49.036;9.344;2023-08-12T12:59:28;16.13;;;14.20;;
46363;SDS011;32071;49.036;9.344;2023-08-12T13:01:54;20.23;;;15.37;;
46363;SDS011;32071;49.036;9.344;2023-08-12T13:04:20;16.97;;;14.83;;
46363;SDS011;32071;49.036;9.344;2023-08-12T13:06:46;16.07;;;12.90;;
46363;SDS011;32071;49.036;9.344;2023-08-12T13:09:11;23.93;;;12.87;;
46363;SDS011;32071;49.036;9.344;2023-08-12T13:11:37;10.93;;;9.30;;
46363;SDS011;32071;49.036;9.344;2023-08-12T13:14:02;12.73;;;10.33;;
46363;SDS011;32071;49.036;9.344;2023-08-12T13:16:28;12.33;;;11.23;;
46363;SDS011;32071;49.036;9.344;2023-08-12T13:18:55;12.53;;;11.23;;
46363;SDS011;32071;49.036;9.344;2023-08-12T13:21:23;12.77;;;11.10;;
46363;SDS011;32071;49.036;9.344;2023-08-12T13:23:51;13.23;;;11.30;;
46363;SDS011;32071;49.036;9.344;2023-08-12T13:26:17;12.43;;;11.13;;
46363;SDS011;32071;49.036;9.344;2023-08-12T13:28:44;12.93;;;11.70;;
46363;SDS011;32071;49.036;9.344;2023-08-12T13:31:09;14.10;;;12.00;;
46363;SDS011;32071;49.036;9.344;2023-08-12T13:33:35;12.80;;;11.47;;
46363;SDS011;32071;49.036;9.344;2023-08-12T13:36:00;11.47;;;10.43;;
46363;SDS011;32071;49.036;9.344;2023-08-12T13:38:26;10.77;;;9.30;;
46363;SDS011;32071;49.036;9.344;2023-08-12T13:40:52;11.73;;;10.73;;
46363;SDS011;32071;49.036;9.344;2023-08-12T13:43:17;12.23;;;10.93;;
46363;SDS011;32071;49.036;9.344;2023-08-12T13:45:43;12.67;;;10.97;;
46363;SDS011;32071;49.036;9.344;2023-08-12T13:48:08;11.43;;;10.43;;
46363;SDS011;32071;49.036;9.344;2023-08-12T13:50:34;13.00;;;11.80;;
46363;SDS011;32071;49.036;9.344;2023-08-12T13:52:59;13.57;;;12.33;;
46363;SDS011;32071;49.036;9.344;2023-08-12T13:55:25;14.00;;;12.60;;
46363;SDS011;32071;49.036;9.344;2023-08-12T13:57:51;13.30;;;12.20;;
46363;SDS011;32071;49.036;9.344;2023-08-12T14:00:17;12.17;;;11.07;;
46363;SDS011;32071;49.036;9.344;2023-08-12T14:02:43;12.77;;;11.50;;
46363;SDS011;32071;49.036;9.344;2023-08-12T14:05:09;12.77;;;11.53;;
46363;SDS011;32071;49.036;9.344;2023-08-12T14:07:36;11.33;;;10.13;;
46363;SDS011;32071;49.036;9.344;2023-08-12T14:10:02;10.90;;;10.00;;
46363;SDS011;32071;49.036;9.344;2023-08-12T14:12:27;11.73;;;10.53;;
46363;SDS011;32071;49.036;9.344;2023-08-12T14:14:53;9.87;;;8.97;;
46363;SDS011;32071;49.036;9.344;2023-08-12T14:17:19;9.80;;;9.00;;
46363;SDS011;32071;49.036;9.344;2023-08-12T14:19:48;8.50;;;7.80;;
46363;SDS011;32071;49.036;9.344;2023-08-12T14:22:14;9.60;;;8.80;;
46363;SDS011;32071;49.036;9.344;2023-08-12T14:24:40;10.47;;;9.50;;
46363;SDS011;32071;49.036;9.344;2023-08-12T14:27:06;9.50;;;8.63;;
46363;SDS011;32071;49.036;9.344;2023-08-12T14:29:31;8.53;;;7.83;;
46363;SDS011;32071;49.036;9.344;2023-08-12T14:31:57;9.60;;;8.80;;
46363;SDS011;32071;49.036;9.344;2023-08-12T14:34:23;9.63;;;8.63;;
46363;SDS011;32071;49.036;9.344;2023-08-12T14:36:49;8.93;;;8.13;;
46363;SDS011;32071;49.036;9.344;2023-08-12T14:39:14;10.63;;;8.77;;